Time;durP1;ratioP1;P1;durP2;ratioP2;P2;SDS_P1;SDS_P2;PMS_P1;PMS_P2;Temp;Humidity;BMP_temperature;BMP_pressure;BME280_temperature;BME280_humidity;BME280_pressure;Samples;Min_cycle;Max_cycle;Signal;HPM_P1;HPM_P2
2021/04/15 00:00:45;;;;;;;22.77;16.55;;;;;;;11.16;60.22;100174.94;1764004;79;21206;-55
2021/04/15 00:03:22;;;;;;;24.27;16.93;;;;;;;11.13;60.40;100177.86;1794002;78;21100;-55
2021/04/15 00:05:51;;;;;;;22.55;16.48;;;;;;;11.12;60.54;100171.73;1795200;77;21944;-55
2021/04/15 00:08:19;;;;;;;24.45;16.35;;;;;;;11.14;60.65;100174.23;1817195;77;21212;-55
2021/04/15 00:10:51;;;;;;;21.45;14.43;;;;;;;11.17;60.62;100173.16;1785415;78;21142;-55
2021/04/15 00:13:36;;;;;;;20.80;15.18;;;;;;;11.17;60.55;100179.25;1820205;77;21792;-55
2021/04/15 00:16:05;;;;;;;24.87;14.85;;;;;;;11.15;60.66;100177.23;1789374;78;22294;-54
2021/04/15 00:18:35;;;;;;;18.35;12.55;;;;;;;11.20;60.65;100170.27;1815180;77;21329;-55
2021/04/15 00:21:05;;;;;;;23.05;12.98;;;;;;;11.29;60.43;100178.18;1780650;78;21172;-55
2021/04/15 00:23:33;;;;;;;19.23;12.93;;;;;;;11.34;60.21;100172.52;1792169;79;21180;-54
2021/04/15 00:26:01;;;;;;;16.93;11.80;;;;;;;11.37;59.92;100170.13;1791103;77;21093;-54
2021/04/15 00:28:29;;;;;;;18.07;13.00;;;;;;;11.36;59.89;100169.76;1816652;77;21120;-54
2021/04/15 00:30:57;;;;;;;25.32;14.20;;;;;;;11.35;59.85;100168.94;1786971;77;21268;-54
2021/04/15 00:33:25;;;;;;;21.52;13.60;;;;;;;11.32;59.64;100167.88;1794298;78;21131;-55
2021/04/15 00:35:54;;;;;;;23.32;14.18;;;;;;;11.27;59.60;100159.05;1776358;79;21539;-54
2021/04/15 00:38:23;;;;;;;20.05;13.30;;;;;;;11.27;59.60;100163.49;1757028;79;21209;-55
2021/04/15 00:40:52;;;;;;;21.10;14.13;;;;;;;11.26;59.51;100165.77;1795618;79;21087;-55
2021/04/15 00:43:23;;;;;;;24.02;13.80;;;;;;;11.25;59.66;100162.30;1815938;77;21216;-55
2021/04/15 00:45:52;;;;;;;22.13;12.75;;;;;;;11.22;59.57;100155.98;1814316;77;21132;-55
2021/04/15 00:48:40;;;;;;;24.87;14.15;;;;;;;11.20;59.29;100162.36;1780216;79;21159;-55
2021/04/15 00:51:16;;;;;;;21.55;14.65;;;;;;;11.16;59.39;100160.45;1779842;79;21299;-55
2021/04/15 00:53:49;;;;;;;21.48;13.48;;;;;;;11.12;59.55;100158.56;1783349;78;21160;-55
2021/04/15 00:56:18;;;;;;;19.30;13.68;;;;;;;11.08;59.61;100159.81;1784023;78;21737;-55
2021/04/15 00:58:46;;;;;;;23.18;15.32;;;;;;;11.06;59.58;100156.48;1779001;78;21198;-55
2021/04/15 01:01:16;;;;;;;23.40;14.35;;;;;;;11.03;59.60;100158.52;1780124;78;21163;-55
2021/04/15 01:03:44;;;;;;;22.62;14.30;;;;;;;11.01;59.68;100153.41;1749465;80;21194;-55
2021/04/15 01:06:14;;;;;;;23.57;13.58;;;;;;;10.94;59.77;100161.00;1753110;79;21193;-55
2021/04/15 01:08:43;;;;;;;23.73;13.75;;;;;;;10.88;60.02;100157.56;1781280;79;21182;-55
2021/04/15 01:11:32;;;;;;;24.47;14.78;;;;;;;10.84;60.19;100153.50;1782058;78;21105;-55
2021/04/15 01:14:44;;;;;;;20.85;13.28;;;;;;;10.80;60.47;100154.74;1749046;78;21175;-54
2021/04/15 01:17:29;;;;;;;17.57;12.05;;;;;;;10.85;60.52;100149.92;1725303;81;21223;-54
2021/04/15 01:20:28;;;;;;;17.60;11.97;;;;;;;10.96;60.62;100147.67;1727183;81;21195;-54
2021/04/15 01:23:29;;;;;;;18.62;12.20;;;;;;;11.03;60.43;100144.89;1770396;78;21215;-55
2021/04/15 01:26:41;;;;;;;22.65;14.60;;;;;;;11.07;60.30;100143.65;1710922;80;21215;-56
2021/04/15 01:29:49;;;;;;;22.62;12.93;;;;;;;11.04;60.17;100141.77;1780700;79;21127;-55
2021/04/15 01:32:32;;;;;;;18.73;12.40;;;;;;;10.96;60.24;100143.27;1748285;79;21132;-55
2021/04/15 01:35:33;;;;;;;19.42;13.83;;;;;;;10.89;60.30;100144.77;1782050;78;21162;-55
2021/04/15 01:38:27;;;;;;;24.32;15.38;;;;;;;10.85;60.26;100138.56;1782984;78;21832;-55
2021/04/15 01:41:03;;;;;;;20.92;13.50;;;;;;;10.77;60.29;100137.89;1756022;79;21215;-54
2021/04/15 01:43:39;;;;;;;20.32;13.40;;;;;;;10.69;60.41;100136.38;1785948;79;21536;-54
2021/04/15 01:46:06;;;;;;;;;;;;;;;10.60;60.71;100130.94;1745132;79;21196;-55
2021/04/15 01:48:45;;;;;;;21.07;13.45;;;;;;;10.57;61.01;100139.56;1787881;78;20258;-55
2021/04/15 01:51:18;;;;;;;24.95;14.70;;;;;;;10.49;61.59;100137.59;1748525;79;21218;-56
2021/04/15 01:53:54;;;;;;;20.85;14.05;;;;;;;10.44;62.10;100130.58;1737075;80;21186;-55
2021/04/15 01:56:28;;;;;;;;;;;;;;;10.43;62.42;100133.33;1785630;79;21171;-55
2021/04/15 01:59:08;;;;;;;23.73;13.85;;;;;;;10.39;62.64;100135.39;1796693;79;21306;-55
2021/04/15 02:01:39;;;;;;;22.35;13.35;;;;;;;10.32;62.65;100138.15;1776173;80;21164;-55
2021/04/15 02:04:10;;;;;;;22.77;12.20;;;;;;;10.27;62.51;100132.41;1779833;79;22199;-55
2021/04/15 02:06:42;;;;;;;20.48;12.18;;;;;;;10.31;62.32;100132.03;1780107;79;21343;-55
2021/04/15 02:09:12;;;;;;;17.30;11.83;;;;;;;10.39;62.29;100124.38;1779398;79;21172;-55
2021/04/15 02:11:54;;;;;;;17.77;12.43;;;;;;;10.46;62.31;100126.02;1781639;79;21156;-55
2021/04/15 02:14:24;;;;;;;20.75;12.63;;;;;;;10.53;62.43;100124.53;1781707;80;21607;-55
2021/04/15 02:16:54;;;;;;;21.57;12.45;;;;;;;10.54;62.41;100124.03;1753901;80;21331;-55
2021/04/15 02:19:30;;;;;;;23.57;12.20;;;;;;;10.55;62.20;100123.91;1779430;79;21175;-55
2021/04/15 02:22:24;;;;;;;19.95;12.43;;;;;;;10.55;61.97;100118.65;1778812;80;21119;-55
2021/04/15 02:25:10;;;;;;;19.82;13.25;;;;;;;10.54;61.86;100118.77;1754212;79;21178;-54
2021/04/15 02:27:49;;;;;;;19.32;12.55;;;;;;;10.49;61.66;100115.70;1778891;79;21164;-55
2021/04/15 02:30:42;;;;;;;23.12;12.93;;;;;;;10.45;61.56;100110.36;1732204;80;21194;-55
2021/04/15 02:33:23;;;;;;;20.52;13.75;;;;;;;10.41;61.51;100109.78;1780111;80;21175;-55
2021/04/15 02:35:54;;;;;;;20.43;11.90;;;;;;;10.38;61.74;100112.66;1779315;79;21135;-55
2021/04/15 02:38:38;;;;;;;19.77;12.70;;;;;;;10.36;61.98;100115.91;1752693;80;21201;-55
2021/04/15 02:41:06;;;;;;;18.65;12.50;;;;;;;10.32;61.85;100111.39;1778790;79;21257;-55
2021/04/15 02:43:51;;;;;;;19.65;12.65;;;;;;;10.24;61.89;100116.42;1783209;79;22379;-55
2021/04/15 02:46:25;;;;;;;16.48;11.85;;;;;;;10.17;62.02;100120.03;1800311;78;21164;-55
2021/04/15 02:48:55;;;;;;;23.62;13.62;;;;;;;10.10;62.10;100115.39;1780207;79;21218;-54
2021/04/15 02:51:30;;;;;;;15.70;10.20;;;;;;;10.03;62.27;100121.64;1756478;80;21187;-55
2021/04/15 02:54:25;;;;;;;16.87;11.48;;;;;;;10.03;62.46;100125.09;1751032;79;21131;-55
2021/04/15 02:57:01;;;;;;;15.15;9.98;;;;;;;10.11;62.31;100111.33;1767271;79;21261;-56
2021/04/15 02:59:39;;;;;;;15.60;10.83;;;;;;;10.16;62.18;100110.95;1740732;80;21198;-56
2021/04/15 03:02:18;;;;;;;19.60;12.80;;;;;;;10.16;62.25;100109.16;1748597;80;21194;-56
2021/04/15 03:04:52;;;;;;;17.98;12.10;;;;;;;10.17;62.21;100111.29;1766568;79;21147;-56
2021/04/15 03:07:21;;;;;;;19.35;11.53;;;;;;;10.15;62.11;100114.05;1769901;79;21178;-55
2021/04/15 03:09:48;;;;;;;18.42;12.18;;;;;;;10.12;62.01;100112.16;1765147;79;21386;-55
2021/04/15 03:12:22;;;;;;;20.32;12.33;;;;;;;10.08;62.03;100111.58;1767477;79;21139;-56
2021/04/15 03:15:13;;;;;;;16.23;10.85;;;;;;;10.06;62.18;100108.73;1765956;79;21597;-55
2021/04/15 03:17:46;;;;;;;18.05;11.73;;;;;;;10.06;62.20;100113.99;1700387;79;21174;-55
2021/04/15 03:20:35;;;;;;;19.80;12.73;;;;;;;10.02;62.24;100117.36;1770493;79;21177;-55
2021/04/15 03:23:08;;;;;;;17.50;12.18;;;;;;;9.96;62.40;100124.42;1768541;79;21197;-55
2021/04/15 03:25:36;;;;;;;16.75;11.35;;;;;;;9.88;62.65;100116.32;1765223;79;21752;-55
2021/04/15 03:28:15;;;;;;;19.25;11.57;;;;;;;9.81;62.80;100110.73;1764189;79;21638;-55
2021/04/15 03:30:53;;;;;;;15.68;10.70;;;;;;;9.77;63.05;100106.70;1769078;79;21135;-55
2021/04/15 03:33:51;;;;;;;15.38;9.40;;;;;;;9.78;63.02;100114.42;1741727;80;21187;-55
2021/04/15 03:36:25;;;;;;;14.75;9.70;;;;;;;9.88;62.84;100115.01;1763411;79;21380;-55
2021/04/15 03:38:58;;;;;;;16.90;11.28;;;;;;;9.93;62.76;100119.41;1764218;80;21197;-55
2021/04/15 03:41:37;;;;;;;15.93;11.20;;;;;;;9.99;62.75;100125.48;1769867;79;21171;-55
2021/04/15 03:44:08;;;;;;;19.15;12.23;;;;;;;10.00;62.69;100122.73;1758691;80;21170;-55
2021/04/15 03:48:31;;;;;;;21.82;10.55;;;;;;;10.05;62.59;100122.34;1864441;74;22672;-56
2021/04/15 03:51:11;;;;;;;17.00;11.35;;;;;;;9.97;62.79;100128.70;1753537;80;21159;-55
2021/04/15 03:53:43;;;;;;;18.37;12.93;;;;;;;9.92;63.02;100126.47;1795765;78;21228;-55
2021/04/15 03:56:21;;;;;;;16.82;11.22;;;;;;;9.93;63.17;100126.80;1755733;79;21702;-56
2021/04/15 03:58:57;;;;;;;16.87;12.45;;;;;;;9.92;63.11;100130.41;1751295;80;21430;-56
2021/04/15 04:01:27;;;;;;;19.17;11.88;;;;;;;9.94;63.27;100136.86;1812301;78;21179;-54
2021/04/15 04:04:32;;;;;;;16.62;12.03;;;;;;;9.96;63.36;100134.44;1811437;78;21151;-55
2021/04/15 04:07:05;;;;;;;18.35;12.23;;;;;;;10.00;63.13;100133.71;1786760;80;21480;-54
2021/04/15 04:09:42;;;;;;;19.32;11.63;;;;;;;10.02;62.90;100129.19;1747908;80;21192;-54
2021/04/15 04:12:13;;;;;;;19.32;11.50;;;;;;;10.02;62.89;100132.64;1775588;80;21136;-55
2021/04/15 04:14:52;;;;;;;20.90;11.28;;;;;;;10.03;62.78;100134.78;1756839;79;21202;-55
2021/04/15 04:17:44;;;;;;;16.77;11.18;;;;;;;10.09;62.73;100138.23;1771467;79;21159;-55
2021/04/15 04:20:13;;;;;;;14.50;9.25;;;;;;;10.26;62.87;100138.64;1781720;80;21234;-55
2021/04/15 04:22:53;;;;;;;17.00;12.30;;;;;;;10.39;62.63;100137.52;1785820;78;21223;-55
2021/04/15 04:25:48;;;;;;;24.98;12.33;;;;;;;10.50;62.24;100135.79;1817272;78;21663;-55
2021/04/15 04:28:20;;;;;;;18.98;12.75;;;;;;;10.58;61.74;100134.67;1731774;80;21482;-55
2021/04/15 04:30:53;;;;;;;20.20;12.40;;;;;;;10.64;61.53;100141.20;1782709;78;21203;-55
2021/04/15 04:33:24;;;;;;;23.05;12.18;;;;;;;10.66;61.27;100140.58;1779601;79;21584;-55
2021/04/15 04:35:53;;;;;;;21.27;13.93;;;;;;;10.67;61.10;100134.38;1788173;79;21235;-55
2021/04/15 04:38:20;;;;;;;18.57;12.73;;;;;;;10.70;60.84;100131.48;1703381;78;21312;-54
2021/04/15 04:40:54;;;;;;;19.70;12.73;;;;;;;10.71;60.74;100130.53;1774206;78;21549;-54
2021/04/15 04:43:34;;;;;;;16.82;11.97;;;;;;;10.72;60.71;100126.43;1777142;78;21223;-57
2021/04/15 04:46:09;;;;;;;19.65;11.93;;;;;;;10.76;60.44;100129.66;1774517;79;21222;-54
2021/04/15 04:48:40;;;;;;;20.85;10.43;;;;;;;10.76;60.50;100129.66;1777285;79;21615;-56
2021/04/15 04:51:11;;;;;;;16.82;12.37;;;;;;;10.69;60.65;100130.66;1756718;79;21200;-56
2021/04/15 04:53:40;;;;;;;20.55;13.13;;;;;;;10.61;61.05;100129.16;1747747;80;21207;-55
2021/04/15 04:56:33;;;;;;;20.90;13.83;;;;;;;10.62;61.31;100129.98;1768478;80;21235;-56
2021/04/15 04:59:18;;;;;;;23.52;12.63;;;;;;;10.64;61.25;100124.09;1762759;79;21414;-56
2021/04/15 05:01:45;;;;;;;16.70;11.85;;;;;;;10.59;61.52;100120.53;1760194;79;21646;-54
2021/04/15 05:04:13;;;;;;;18.52;11.40;;;;;;;10.64;61.80;100126.27;1752134;79;21254;-53
2021/04/15 05:06:44;;;;;;;18.37;11.95;;;;;;;10.77;61.66;100122.92;1757772;79;21258;-54
2021/04/15 05:09:23;;;;;;;18.07;13.22;;;;;;;10.92;61.51;100126.05;1746411;80;21218;-54
2021/04/15 05:11:50;;;;;;;19.65;13.15;;;;;;;11.04;61.15;100123.34;1752118;80;21199;-54
2021/04/15 05:14:22;;;;;;;19.73;13.15;;;;;;;11.10;60.80;100122.81;1762765;79;21277;-54
2021/04/15 05:16:59;;;;;;;21.27;13.00;;;;;;;11.20;60.49;100124.17;1765835;79;21641;-54
2021/04/15 05:19:31;;;;;;;19.75;13.30;;;;;;;11.26;59.91;100124.48;1757992;79;21181;-55
2021/04/15 05:21:59;;;;;;;19.50;12.93;;;;;;;11.29;59.57;100125.50;1739692;79;21207;-55
2021/04/15 05:24:41;;;;;;;22.82;13.10;;;;;;;11.31;59.34;100128.00;1765184;79;21424;-55
2021/04/15 05:27:10;;;;;;;22.45;13.88;;;;;;;11.33;59.12;100127.38;1737853;79;21218;-55
2021/04/15 05:30:07;;;;;;;23.42;13.68;;;;;;;11.36;59.01;100131.56;1737880;81;21222;-55
2021/04/15 05:32:35;;;;;;;23.60;11.83;;;;;;;11.37;58.99;100126.66;1738287;81;21226;-55
2021/04/15 05:35:03;;;;;;;20.60;12.25;;;;;;;11.39;59.21;100128.17;1735694;81;21238;-55
2021/04/15 05:37:30;;;;;;;20.85;12.63;;;;;;;11.43;59.28;100125.63;1740506;81;21222;-55
2021/04/15 05:39:58;;;;;;;19.05;13.00;;;;;;;11.51;59.03;100132.84;1733409;81;21227;-55
2021/04/15 05:42:35;;;;;;;21.17;12.10;;;;;;;11.58;59.17;100135.28;1704515;82;21261;-56
2021/04/15 05:45:23;;;;;;;15.68;10.70;;;;;;;11.62;59.01;100126.16;1700889;82;21197;-54
2021/04/15 05:48:05;;;;;;;20.12;12.60;;;;;;;11.65;58.81;100123.25;1702725;82;21206;-53
2021/04/15 05:50:44;;;;;;;18.05;11.28;;;;;;;11.67;58.45;100128.39;1673272;84;21543;-55
2021/04/15 05:53:19;;;;;;;21.57;11.95;;;;;;;11.68;58.46;100123.45;1713888;82;21539;-58
2021/04/15 05:55:52;;;;;;;18.55;12.93;;;;;;;11.71;58.41;100118.73;1734211;81;21216;-56
2021/04/15 05:58:28;;;;;;;16.60;11.57;;;;;;;11.76;58.62;100120.14;1713994;81;21246;-56
2021/04/15 06:01:13;;;;;;;17.70;12.10;;;;;;;11.81;58.59;100109.52;1733044;81;21244;-57
2021/04/15 06:04:07;;;;;;;19.25;12.25;;;;;;;11.86;58.74;100119.17;1727123;81;22875;-57
2021/04/15 06:06:38;;;;;;;17.57;10.70;;;;;;;11.91;58.90;100113.52;1732517;81;21242;-57
2021/04/15 06:09:06;;;;;;;21.97;12.18;;;;;;;12.06;58.55;100115.27;1732752;81;21229;-57
2021/04/15 06:12:14;;;;;;;16.55;10.58;;;;;;;12.25;58.23;100113.09;1704392;82;21236;-58
2021/04/15 06:14:55;;;;;;;14.55;9.98;;;;;;;12.40;57.67;100113.00;1717105;81;21270;-57
2021/04/15 06:17:43;;;;;;;16.27;11.35;;;;;;;12.54;57.62;100119.66;1705383;83;21839;-57
2021/04/15 06:20:27;;;;;;;22.80;11.57;;;;;;;12.66;57.38;100115.52;1734534;81;21614;-57
2021/04/15 06:22:59;;;;;;;17.27;12.10;;;;;;;12.77;57.30;100114.86;1717576;81;21644;-57
2021/04/15 06:25:33;;;;;;;22.30;13.60;;;;;;;12.88;57.03;100110.38;1736780;81;21151;-59
2021/04/15 06:28:06;;;;;;;18.85;12.13;;;;;;;12.97;56.63;100114.31;1711286;82;21174;-58
2021/04/15 06:30:58;;;;;;;19.85;12.28;;;;;;;13.01;56.76;100114.84;1731335;81;22260;-59
2021/04/15 06:33:26;;;;;;;15.35;11.73;;;;;;;13.07;56.80;100112.95;1726172;81;21198;-59
2021/04/15 06:35:55;;;;;;;18.80;11.93;;;;;;;13.10;56.65;100111.84;1702740;82;21136;-59
2021/04/15 06:38:36;;;;;;;17.82;11.73;;;;;;;13.12;56.58;100114.67;1735619;81;21162;-60
2021/04/15 06:41:33;;;;;;;19.40;12.85;;;;;;;13.11;56.86;100107.74;1718050;81;22821;-58
2021/04/15 06:44:16;;;;;;;18.40;13.13;;;;;;;13.14;56.78;100114.53;1728631;81;21231;-57
2021/04/15 06:47:25;;;;;;;19.57;11.68;;;;;;;13.17;56.51;100119.02;1726571;81;21166;-57
2021/04/15 06:50:38;;;;;;;15.95;11.85;;;;;;;13.25;56.34;100116.16;1728880;81;21218;-56
2021/04/15 06:53:37;;;;;;;17.85;12.82;;;;;;;13.32;55.86;100110.66;1718548;81;21377;-57
2021/04/15 06:56:22;;;;;;;19.98;13.72;;;;;;;13.36;55.72;100109.37;1723679;81;22306;-57
2021/04/15 06:59:31;;;;;;;17.10;11.40;;;;;;;13.44;55.57;100114.75;1730902;81;21505;-56
2021/04/15 07:02:10;;;;;;;19.10;10.20;;;;;;;13.47;54.82;100110.49;1721768;81;21235;-56
2021/04/15 07:04:47;;;;;;;17.73;11.28;;;;;;;13.50;54.42;100107.56;1699646;82;21722;-56
2021/04/15 07:07:27;;;;;;;16.07;11.25;;;;;;;13.58;54.84;100108.12;1737106;81;21234;-56
2021/04/15 07:10:00;;;;;;;13.38;7.90;;;;;;;13.68;54.74;100108.88;1700835;81;21558;-56
2021/04/15 07:12:58;;;;;;;9.10;6.72;;;;;;;13.79;52.72;100111.00;1698849;83;21143;-57
2021/04/15 07:15:52;;;;;;;13.13;7.33;;;;;;;13.90;52.06;100103.67;1669545;84;21241;-58
2021/04/15 07:18:52;;;;;;;11.35;7.45;;;;;;;14.02;51.27;100108.70;1718643;81;21767;-57
2021/04/15 07:22:08;;;;;;;10.10;6.53;;;;;;;14.15;50.61;100101.72;1717876;81;21630;-57
2021/04/15 07:24:43;;;;;;;11.50;6.80;;;;;;;14.27;50.31;100103.98;1697756;82;21233;-57
2021/04/15 07:38:14;;;;;;;11.43;7.60;;;;;;;14.89;48.63;100096.94;1858912;74;23268;-56
2021/04/15 07:41:00;;;;;;;13.78;8.63;;;;;;;14.94;48.72;100094.65;1788866;79;21145;-57
2021/04/15 07:43:59;;;;;;;11.78;8.53;;;;;;;15.09;48.59;100100.19;1782052;78;21209;-57
2021/04/15 07:46:44;;;;;;;12.93;8.00;;;;;;;15.18;48.74;100097.89;1773678;79;21173;-57
2021/04/15 07:49:52;;;;;;;12.73;7.95;;;;;;;15.19;48.27;100092.94;1761213;78;21838;-63
2021/04/15 07:53:04;;;;;;;11.68;7.72;;;;;;;15.16;48.30;100096.75;1798143;78;21154;-64
2021/04/15 07:56:11;;;;;;;12.63;7.62;;;;;;;15.12;48.09;100094.06;1773273;78;21666;-61
2021/04/15 07:59:10;;;;;;;11.35;6.75;;;;;;;15.07;47.67;100097.69;1801179;77;21398;-63
2021/04/15 08:01:56;;;;;;;11.80;6.78;;;;;;;15.03;47.48;100095.86;1776144;78;21215;-60
2021/04/15 08:05:03;;;;;;;10.40;6.67;;;;;;;15.07;47.82;100094.22;1784363;78;21098;-58
2021/04/15 08:08:06;;;;;;;9.18;5.85;;;;;;;15.17;47.16;100086.97;1787509;78;21594;-59
2021/04/15 08:11:02;;;;;;;9.80;6.30;;;;;;;15.26;46.83;100092.63;1782621;77;21215;-60
2021/04/15 08:14:18;;;;;;;11.68;6.40;;;;;;;15.28;46.63;100086.69;1811915;77;22223;-56
2021/04/15 08:17:18;;;;;;;9.68;6.42;;;;;;;15.34;46.67;100084.70;1820106;77;21207;-55
2021/04/15 08:19:51;;;;;;;8.70;5.92;;;;;;;15.36;45.98;100081.89;1799083;78;21176;-55
2021/04/15 08:22:33;;;;;;;9.18;6.37;;;;;;;15.34;45.98;100078.07;1759985;79;21167;-55
2021/04/15 08:25:22;;;;;;;12.28;7.42;;;;;;;15.35;46.21;100079.74;1788545;78;21223;-55
2021/04/15 08:28:25;;;;;;;9.83;6.40;;;;;;;15.40;46.12;100085.89;1751419;78;21231;-54
2021/04/15 08:31:12;;;;;;;9.90;6.80;;;;;;;15.44;46.05;100085.07;1781664;78;21270;-57
2021/04/15 08:34:06;;;;;;;10.63;6.83;;;;;;;15.45;45.86;100083.59;1782794;78;21156;-57
2021/04/15 08:36:59;;;;;;;12.28;8.23;;;;;;;15.53;46.18;100081.44;1747301;80;21633;-56
2021/04/15 08:40:09;;;;;;;11.12;6.80;;;;;;;15.58;46.05;100081.30;1761370;80;21174;-57
2021/04/15 08:43:01;;;;;;;11.65;6.72;;;;;;;15.67;45.58;100074.66;1761395;79;21271;-55
2021/04/15 08:49:01;;;;;;;13.88;6.90;;;;;;;15.70;45.35;100071.20;1827229;76;22760;-56
2021/04/15 08:52:06;;;;;;;10.15;6.35;;;;;;;15.69;45.30;100076.16;1705927;82;21148;-58
2021/04/15 08:54:52;;;;;;;9.78;6.50;;;;;;;15.68;45.17;100077.14;1763002;80;21299;-55
2021/04/15 08:57:37;;;;;;;9.63;6.42;;;;;;;15.65;45.13;100073.52;1739911;82;21139;-55
2021/04/15 09:00:36;;;;;;;11.65;7.28;;;;;;;15.65;45.02;100077.50;1745844;81;21212;-54
2021/04/15 09:03:18;;;;;;;10.13;6.83;;;;;;;15.66;45.35;100073.83;1736783;80;21199;-54
2021/04/15 09:06:09;;;;;;;13.55;7.65;;;;;;;15.76;45.18;100065.25;1743317;81;21163;-54
2021/04/15 09:08:51;;;;;;;12.00;7.83;;;;;;;15.80;45.62;100063.09;1798495;79;21220;-54
2021/04/15 09:11:49;;;;;;;11.75;7.75;;;;;;;15.85;45.65;100065.27;1772032;79;21195;-54
2021/04/15 09:14:25;;;;;;;14.80;8.38;;;;;;;15.94;45.93;100065.62;1738791;82;21445;-53
2021/04/15 09:17:10;;;;;;;13.90;8.18;;;;;;;16.08;46.42;100060.95;1712859;81;21214;-54
2021/04/15 09:20:03;;;;;;;10.88;7.97;;;;;;;16.23;46.08;100068.26;1744383;81;21634;-54
2021/04/15 09:22:52;;;;;;;15.18;8.48;;;;;;;16.37;45.57;100068.89;1798193;79;21618;-54
2021/04/15 09:25:31;;;;;;;16.07;9.58;;;;;;;16.48;45.10;100063.23;1799855;79;21120;-53
2021/04/15 09:28:15;;;;;;;15.55;9.05;;;;;;;16.56;44.96;100061.55;1802850;78;21236;-54
2021/04/15 09:31:16;;;;;;;15.58;8.83;;;;;;;16.62;45.26;100055.06;1765455;79;21228;-55
2021/04/15 09:34:01;;;;;;;14.20;8.98;;;;;;;16.67;44.89;100047.41;1797145;79;21532;-54
2021/04/15 09:36:50;;;;;;;15.48;9.15;;;;;;;16.75;44.43;100051.06;1795738;79;21190;-54
2021/04/15 09:39:49;;;;;;;14.35;9.43;;;;;;;16.77;44.29;100043.23;1790443;79;21190;-54
2021/04/15 09:42:54;;;;;;;13.22;9.00;;;;;;;16.83;44.08;100047.87;1774329;79;21124;-53
2021/04/15 09:45:49;;;;;;;15.30;9.28;;;;;;;16.88;43.74;100044.22;1738046;81;21197;-54
2021/04/15 09:48:47;;;;;;;18.02;8.60;;;;;;;16.90;44.00;100046.20;1775954;79;21193;-54
2021/04/15 09:51:32;;;;;;;15.13;8.53;;;;;;;17.00;43.79;100050.50;1778555;79;21213;-54
2021/04/15 09:54:14;;;;;;;12.58;7.40;;;;;;;17.09;43.68;100044.13;1754279;80;21221;-55
2021/04/15 09:57:03;;;;;;;15.43;8.63;;;;;;;17.16;44.04;100043.75;1747383;79;21198;-54
2021/04/15 10:00:00;;;;;;;11.00;7.33;;;;;;;17.27;43.94;100045.20;1772702;79;21158;-54
2021/04/15 10:02:44;;;;;;;11.53;8.75;;;;;;;17.36;42.69;100041.99;1797631;78;21535;-54
2021/04/15 10:05:55;;;;;;;11.45;7.72;;;;;;;17.46;42.41;100039.94;1768890;78;21143;-54
2021/04/15 10:08:57;;;;;;;12.18;8.70;;;;;;;17.57;42.25;100043.52;1755075;81;21223;-54
2021/04/15 10:12:07;;;;;;;14.50;8.88;;;;;;;17.63;42.74;100037.50;1748947;80;21304;-54
2021/04/15 10:15:07;;;;;;;12.20;7.47;;;;;;;17.68;42.60;100041.45;1792951;78;21160;-59
2021/04/15 10:18:10;;;;;;;12.82;8.23;;;;;;;17.68;41.61;100034.80;1796149;78;21203;-54
2021/04/15 10:20:47;;;;;;;11.63;7.30;;;;;;;17.67;41.75;100038.45;1792567;78;21539;-54
2021/04/15 10:23:31;;;;;;;13.00;7.97;;;;;;;17.65;41.88;100035.97;1800868;78;21187;-54
2021/04/15 10:26:27;;;;;;;11.48;7.72;;;;;;;17.70;41.99;100031.45;1799542;78;21191;-54
2021/04/15 10:29:25;;;;;;;13.05;8.60;;;;;;;17.70;42.38;100038.95;1704119;81;21167;-55
2021/04/15 10:32:29;;;;;;;17.05;8.53;;;;;;;17.70;41.85;100036.30;1779493;79;21276;-55
2021/04/15 10:35:41;;;;;;;13.45;7.33;;;;;;;17.70;42.54;100042.09;1782482;79;21212;-54
2021/04/15 10:39:03;;;;;;;11.68;7.33;;;;;;;17.69;41.60;100046.60;1802703;78;22353;-54
2021/04/15 10:42:05;;;;;;;12.23;7.20;;;;;;;17.54;41.17;100041.72;1800290;78;21182;-55
2021/04/15 10:45:09;;;;;;;9.85;6.20;;;;;;;17.17;41.74;100054.72;1778055;78;21223;-54
2021/04/15 10:48:20;;;;;;;11.70;6.35;;;;;;;16.98;42.43;100047.16;1795439;78;21216;-55
2021/04/15 10:51:05;;;;;;;10.50;6.42;;;;;;;16.85;42.50;100047.73;1765043;79;21485;-55
2021/04/15 10:54:02;;;;;;;11.63;6.35;;;;;;;16.70;42.86;100051.05;1793478;79;21191;-53
2021/04/15 10:56:43;;;;;;;12.07;7.00;;;;;;;16.60;43.21;100050.42;1799319;79;21552;-54
2021/04/15 10:59:39;;;;;;;11.75;7.00;;;;;;;16.49;43.66;100054.28;1787588;78;21175;-54
2021/04/15 11:02:34;;;;;;;11.68;7.08;;;;;;;16.41;43.94;100052.11;1785668;79;21243;-54
2021/04/15 11:05:24;;;;;;;9.93;7.20;;;;;;;16.31;43.81;100055.80;1762662;79;22271;-54
2021/04/15 11:08:07;;;;;;;12.63;7.25;;;;;;;16.20;44.11;100052.66;1791228;79;21180;-54
2021/04/15 11:10:37;;;;;;;11.73;7.33;;;;;;;16.12;44.56;100058.31;1721723;81;21122;-55
2021/04/15 11:13:24;;;;;;;14.23;8.05;;;;;;;16.08;44.87;100058.30;1790622;79;21167;-55
2021/04/15 11:15:55;;;;;;;12.93;7.80;;;;;;;16.08;44.67;100062.78;1784953;79;21276;-54
2021/04/15 11:18:30;;;;;;;10.60;6.83;;;;;;;16.02;44.42;100060.31;1740245;80;21226;-54
2021/04/15 11:21:26;;;;;;;12.33;7.70;;;;;;;15.95;44.26;100064.60;1787751;79;21195;-54
2021/04/15 11:24:27;;;;;;;11.83;6.83;;;;;;;15.86;44.60;100065.10;1741946;81;21241;-55
2021/04/15 11:27:06;;;;;;;12.30;7.30;;;;;;;15.82;44.56;100058.48;1750385;81;21138;-55
2021/04/15 11:29:43;;;;;;;13.03;8.28;;;;;;;15.77;44.79;100057.64;1770266;79;21220;-57
2021/04/15 11:32:41;;;;;;;10.20;6.78;;;;;;;15.77;44.93;100057.64;1779900;78;21191;-56
2021/04/15 11:35:20;;;;;;;13.62;7.75;;;;;;;15.82;45.21;100056.30;1795029;79;21219;-54
2021/04/15 11:37:53;;;;;;;11.65;7.47;;;;;;;15.86;44.60;100053.67;1798601;79;21171;-54
2021/04/15 11:40:40;;;;;;;13.60;6.80;;;;;;;15.89;44.49;100048.04;1795827;79;21147;-54
2021/04/15 11:43:21;;;;;;;12.07;7.55;;;;;;;15.94;44.39;100052.34;1790810;79;21179;-54
2021/04/15 11:45:55;;;;;;;12.05;7.53;;;;;;;15.94;44.39;100043.06;1765867;79;21187;-54
2021/04/15 11:48:29;;;;;;;10.98;6.80;;;;;;;15.92;44.58;100038.39;1795016;79;21664;-55
2021/04/15 11:51:18;;;;;;;12.20;7.77;;;;;;;15.96;44.71;100042.39;1805973;79;21168;-54
2021/04/15 11:53:53;;;;;;;11.38;7.40;;;;;;;16.01;44.42;100044.55;1787502;79;21199;-54
2021/04/15 11:56:33;;;;;;;11.65;7.60;;;;;;;16.00;44.53;100039.72;1785370;79;21179;-55
2021/04/15 11:59:26;;;;;;;12.23;7.05;;;;;;;16.01;44.23;100044.05;1796225;79;21988;-55
2021/04/15 12:02:16;;;;;;;11.03;8.05;;;;;;;16.03;44.02;100039.39;1778480;79;21250;-55
2021/04/15 12:04:47;;;;;;;10.72;7.20;;;;;;;16.07;44.01;100040.73;1793875;77;21191;-55
2021/04/15 12:07:26;;;;;;;12.90;7.40;;;;;;;16.15;44.22;100034.58;1792338;79;21167;-55
2021/04/15 12:09:57;;;;;;;13.58;8.18;;;;;;;16.26;43.96;100038.73;1763987;79;21479;-56
2021/04/15 12:12:38;;;;;;;16.90;8.50;;;;;;;16.36;43.85;100031.41;1772982;79;21461;-56
2021/04/15 12:15:14;;;;;;;13.45;7.25;;;;;;;16.43;43.56;100025.73;1800888;79;21184;-56
2021/04/15 12:18:12;;;;;;;12.88;7.40;;;;;;;16.59;43.42;100029.34;1823181;76;22782;-55
2021/04/15 12:21:13;;;;;;;14.55;7.47;;;;;;;16.65;43.52;100030.00;1770457;79;21203;-56
2021/04/15 12:24:20;;;;;;;9.43;6.50;;;;;;;16.76;43.41;100030.97;1805222;77;22191;-55
2021/04/15 12:27:07;;;;;;;12.90;6.95;;;;;;;16.82;43.35;100027.59;1799449;78;21207;-60
2021/04/15 12:29:42;;;;;;;9.90;6.92;;;;;;;16.93;42.63;100025.59;1812209;77;21160;-56
2021/04/15 12:32:51;;;;;;;12.30;7.47;;;;;;;17.06;42.73;100021.39;1806236;77;20998;-56
2021/04/15 12:35:43;;;;;;;13.00;6.53;;;;;;;17.18;41.68;100026.30;1804113;77;21156;-57
2021/04/15 12:38:35;;;;;;;10.75;5.47;;;;;;;17.32;40.65;100016.26;1799097;78;21530;-57
2021/04/15 12:41:06;;;;;;;15.00;6.67;;;;;;;17.48;40.79;100011.32;1773483;77;21187;-58
2021/04/15 12:43:44;;;;;;;11.78;5.67;;;;;;;17.62;40.82;100018.55;1801961;77;21152;-57